createdAt,value
2023-05-19T00:00:05.555Z,99.90
2023-05-19T00:02:58.320Z,99.90
2023-05-19T00:05:31.420Z,99.90
2023-05-19T00:08:04.963Z,99.90
2023-05-19T00:10:38.629Z,99.90
2023-05-19T00:13:11.339Z,99.90
2023-05-19T00:15:44.554Z,99.90
2023-05-19T00:18:17.575Z,99.90
2023-05-19T00:20:52.419Z,99.90
2023-05-19T00:23:24.993Z,99.90
2023-05-19T00:25:57.807Z,99.90
2023-05-19T00:28:30.383Z,99.90
2023-05-19T00:31:05.307Z,99.90
2023-05-19T00:33:37.796Z,99.90
2023-05-19T00:36:10.610Z,99.90
2023-05-19T00:38:43.279Z,99.90
2023-05-19T00:41:16.325Z,99.90
2023-05-19T00:43:49.326Z,99.90
2023-05-19T00:46:23.155Z,99.90
2023-05-19T00:48:55.718Z,99.90
2023-05-19T00:51:29.772Z,99.90
2023-05-19T00:54:02.324Z,99.90
2023-05-19T00:56:35.561Z,99.90
2023-05-19T00:59:08.536Z,99.90
2023-05-19T01:01:41.449Z,99.90
2023-05-19T01:04:17.067Z,99.90
2023-05-19T01:06:54.898Z,99.90
2023-05-19T01:09:27.480Z,99.90
2023-05-19T01:12:01.535Z,99.90
2023-05-19T01:14:34.106Z,99.90
2023-05-19T01:17:25.346Z,99.90
2023-05-19T01:20:11.010Z,99.90
2023-05-19T01:23:16.790Z,99.90
2023-05-19T01:25:52.390Z,99.90
2023-05-19T01:28:27.973Z,99.90
2023-05-19T01:31:02.082Z,99.90
2023-05-19T01:33:36.002Z,99.90
2023-05-19T01:36:09.075Z,99.90
2023-05-19T01:38:44.236Z,99.90
2023-05-19T01:41:18.620Z,99.90
2023-05-19T01:43:51.955Z,99.90
2023-05-19T01:46:25.487Z,99.90
2023-05-19T01:48:59.189Z,99.90
2023-05-19T01:51:31.888Z,99.90
2023-05-19T01:54:04.720Z,99.90
2023-05-19T01:57:00.308Z,99.90
2023-05-19T01:59:36.066Z,99.90
2023-05-19T02:02:21.690Z,99.90
2023-05-19T02:05:01.798Z,99.90
2023-05-19T02:07:42.808Z,99.90
2023-05-19T02:10:22.916Z,99.90
2023-05-19T02:12:58.901Z,99.90
2023-05-19T02:15:42.349Z,99.90
2023-05-19T02:18:17.977Z,99.90
2023-05-19T02:20:50.879Z,99.90
2023-05-19T02:23:23.427Z,99.90
2023-05-19T02:25:56.289Z,99.90
2023-05-19T02:28:28.905Z,99.90
2023-05-19T02:31:01.774Z,99.90
2023-05-19T02:33:34.656Z,99.90
2023-05-19T02:36:09.040Z,99.90
2023-05-19T02:38:41.812Z,99.90
2023-05-19T02:41:14.594Z,99.90
2023-05-19T02:43:47.110Z,99.90
2023-05-19T02:46:20.119Z,99.90
2023-05-19T02:48:53.207Z,99.90
2023-05-19T02:51:26.052Z,99.90
2023-05-19T02:53:58.606Z,99.90
2023-05-19T02:56:31.395Z,99.90
2023-05-19T02:59:03.984Z,99.90
2023-05-19T03:01:37.764Z,99.90
2023-05-19T03:04:11.346Z,99.90
2023-05-19T03:06:45.585Z,99.90
2023-05-19T03:09:18.176Z,99.90
2023-05-19T03:11:51.096Z,99.90
2023-05-19T03:14:24.608Z,99.90
2023-05-19T03:16:57.512Z,99.90
2023-05-19T03:19:32.546Z,99.90
2023-05-19T03:22:05.440Z,99.90
2023-05-19T03:24:37.981Z,99.90
2023-05-19T03:27:12.509Z,99.90
2023-05-19T03:29:45.081Z,99.90
2023-05-19T03:32:17.973Z,99.90
2023-05-19T03:34:50.824Z,99.90
2023-05-19T03:37:23.718Z,99.90
2023-05-19T03:39:56.278Z,99.90
2023-05-19T03:42:29.401Z,99.90
2023-05-19T03:45:02.436Z,99.90
2023-05-19T03:47:35.280Z,99.90
2023-05-19T03:50:08.281Z,99.90
2023-05-19T03:52:45.507Z,99.90
2023-05-19T03:55:20.293Z,99.90
2023-05-19T03:57:53.143Z,99.90
2023-05-19T04:00:25.878Z,99.90
2023-05-19T04:03:00.231Z,99.90
2023-05-19T04:05:33.115Z,99.90
2023-05-19T04:08:06.221Z,99.90
2023-05-19T04:10:38.746Z,99.90
2023-05-19T04:13:11.802Z,99.90
2023-05-19T04:15:44.464Z,99.90
2023-05-19T04:18:17.276Z,99.90
2023-05-19T04:20:49.948Z,99.90
2023-05-19T04:23:22.801Z,99.90
2023-05-19T04:25:57.148Z,99.90
2023-05-19T04:28:30.238Z,99.90
2023-05-19T04:31:03.629Z,99.90
2023-05-19T04:33:40.325Z,99.90
2023-05-19T04:36:13.864Z,99.90
2023-05-19T04:38:47.652Z,99.90
2023-05-19T04:41:21.130Z,99.90
2023-05-19T04:43:53.942Z,99.90
2023-05-19T04:46:27.329Z,99.90
2023-05-19T04:49:01.406Z,99.90
2023-05-19T04:51:34.158Z,99.90
2023-05-19T04:54:10.276Z,99.90
2023-05-19T04:56:43.726Z,99.90
2023-05-19T04:59:16.558Z,99.90
2023-05-19T05:01:49.118Z,99.90
2023-05-19T05:04:23.035Z,99.90
2023-05-19T05:06:55.589Z,99.90
2023-05-19T05:09:28.451Z,99.90
2023-05-19T05:12:02.333Z,99.90
2023-05-19T05:14:35.525Z,99.90
2023-05-19T05:17:09.712Z,99.90
2023-05-19T05:19:42.785Z,99.90
2023-05-19T05:22:15.964Z,99.40
2023-05-19T05:24:49.374Z,99.40
2023-05-19T05:27:21.899Z,99.30
2023-05-19T05:29:55.309Z,99.40
2023-05-19T05:32:29.204Z,99.30
2023-05-19T05:35:02.194Z,99.30
2023-05-19T05:37:34.806Z,99.00
2023-05-19T05:40:08.362Z,98.90
2023-05-19T05:42:40.939Z,99.70
2023-05-19T05:45:13.880Z,98.90
2023-05-19T05:47:46.769Z,98.20
2023-05-19T05:50:19.915Z,98.30
2023-05-19T05:52:53.769Z,97.80
2023-05-19T05:55:27.005Z,97.60
2023-05-19T05:58:02.143Z,97.50
2023-05-19T06:00:35.250Z,97.70
2023-05-19T06:03:08.184Z,97.00
2023-05-19T06:05:41.358Z,96.70
2023-05-19T06:08:13.906Z,97.50
2023-05-19T06:10:47.461Z,97.20
2023-05-19T06:13:24.074Z,96.70
2023-05-19T06:15:57.046Z,96.60
2023-05-19T06:18:29.917Z,96.40
2023-05-19T06:21:03.429Z,96.10
2023-05-19T06:23:36.804Z,96.30
2023-05-19T06:26:09.624Z,96.50
2023-05-19T06:28:42.143Z,96.40
2023-05-19T06:31:15.283Z,96.10
2023-05-19T06:33:47.812Z,96.20
2023-05-19T06:36:20.743Z,95.90
2023-05-19T06:38:53.324Z,96.10
2023-05-19T06:41:26.295Z,95.60
2023-05-19T06:43:58.801Z,95.90
2023-05-19T06:46:31.895Z,95.60
2023-05-19T06:49:04.420Z,95.50
2023-05-19T06:51:37.452Z,95.40
2023-05-19T06:54:11.177Z,95.60
2023-05-19T06:56:43.971Z,95.50
2023-05-19T06:59:16.481Z,95.40
2023-05-19T07:01:49.411Z,94.90
2023-05-19T07:04:21.951Z,94.40
2023-05-19T07:06:55.092Z,94.00
2023-05-19T07:09:27.667Z,94.30
2023-05-19T07:12:01.453Z,93.90
2023-05-19T07:14:34.081Z,94.00
2023-05-19T07:17:07.139Z,94.10
2023-05-19T07:19:39.638Z,93.90
2023-05-19T07:22:12.748Z,93.90
2023-05-19T07:24:45.267Z,93.90
2023-05-19T07:27:18.438Z,93.60
2023-05-19T07:29:50.935Z,93.80
2023-05-19T07:32:23.898Z,93.40
2023-05-19T07:34:56.556Z,93.50
2023-05-19T07:37:29.456Z,93.40
2023-05-19T07:40:02.062Z,93.40
2023-05-19T07:42:35.305Z,93.60
2023-05-19T07:45:08.391Z,94.30
2023-05-19T07:47:41.430Z,94.00
2023-05-19T07:50:13.992Z,94.20
2023-05-19T07:52:47.084Z,94.10
2023-05-19T07:55:19.636Z,93.80
2023-05-19T07:57:52.458Z,93.90
2023-05-19T08:00:25.034Z,93.70
2023-05-19T08:02:58.281Z,94.00
2023-05-19T08:05:30.998Z,93.80
2023-05-19T08:08:04.631Z,93.70
2023-05-19T08:10:37.206Z,93.70
2023-05-19T08:13:10.022Z,93.30
2023-05-19T08:15:42.915Z,93.30
2023-05-19T08:18:16.230Z,93.20
2023-05-19T08:20:48.840Z,94.30
2023-05-19T08:23:22.158Z,93.40
2023-05-19T08:25:54.804Z,92.90
2023-05-19T08:28:27.950Z,91.60
2023-05-19T08:31:00.550Z,91.50
2023-05-19T08:33:33.465Z,90.90
2023-05-19T08:36:06.711Z,90.20
2023-05-19T08:38:39.550Z,90.50
2023-05-19T08:41:12.201Z,89.50
2023-05-19T08:43:45.515Z,88.30
2023-05-19T08:46:18.519Z,88.00
2023-05-19T08:48:57.347Z,86.00
2023-05-19T08:51:44.454Z,86.00
2023-05-19T08:54:18.753Z,85.30
2023-05-19T08:56:51.654Z,86.80
2023-05-19T08:59:24.870Z,84.50
2023-05-19T09:01:57.666Z,83.60
2023-05-19T09:04:32.165Z,83.90
2023-05-19T09:07:05.185Z,82.80
2023-05-19T09:09:38.279Z,83.10
2023-05-19T09:12:11.644Z,82.70
2023-05-19T09:14:44.626Z,83.20
2023-05-19T09:17:18.749Z,83.50
2023-05-19T09:19:52.878Z,81.50
2023-05-19T09:22:25.496Z,81.30
2023-05-19T09:24:58.997Z,81.20
2023-05-19T09:27:33.870Z,81.70
2023-05-19T09:30:10.411Z,81.80
2023-05-19T09:32:44.687Z,81.60
2023-05-19T09:35:20.101Z,83.30
2023-05-19T09:37:53.163Z,83.80
2023-05-19T09:40:28.380Z,82.40
2023-05-19T09:43:07.894Z,82.00
2023-05-19T09:45:40.796Z,82.40
2023-05-19T09:48:15.941Z,83.20
2023-05-19T09:50:51.751Z,83.30
2023-05-19T09:53:25.403Z,85.50
2023-05-19T09:55:58.586Z,85.00
2023-05-19T09:58:35.652Z,85.40
2023-05-19T10:01:09.731Z,86.90
2023-05-19T10:03:43.195Z,85.80
2023-05-19T10:06:16.496Z,86.50
2023-05-19T10:08:51.837Z,89.60
2023-05-19T10:11:25.634Z,90.10
2023-05-19T10:13:58.551Z,91.00
2023-05-19T10:16:32.744Z,90.80
2023-05-19T10:19:07.841Z,92.40
2023-05-19T10:21:41.265Z,91.70
2023-05-19T10:24:13.798Z,92.20
2023-05-19T10:27:02.632Z,92.90
2023-05-19T10:29:39.717Z,92.90
2023-05-19T10:32:18.192Z,92.70
2023-05-19T10:35:35.049Z,93.30
2023-05-19T10:38:36.051Z,93.50
2023-05-19T10:41:11.661Z,96.00
2023-05-19T10:44:03.648Z,97.60
2023-05-19T10:46:36.305Z,98.40
2023-05-19T10:49:09.269Z,97.30
2023-05-19T10:51:45.882Z,99.90
2023-05-19T10:54:40.807Z,98.50
2023-05-19T10:57:19.733Z,99.20
2023-05-19T10:59:55.764Z,99.40
2023-05-19T11:02:43.082Z,98.10
2023-05-19T11:05:18.654Z,99.10
2023-05-19T11:08:08.182Z,99.80
2023-05-19T11:10:44.772Z,97.80
2023-05-19T11:13:22.693Z,98.20
2023-05-19T11:15:56.580Z,97.10
2023-05-19T11:18:35.263Z,98.30
2023-05-19T11:21:08.160Z,97.20
2023-05-19T11:23:40.999Z,97.40
2023-05-19T11:26:13.938Z,97.70
2023-05-19T11:28:48.286Z,97.60
2023-05-19T11:31:25.416Z,98.20
2023-05-19T11:33:58.520Z,98.20
2023-05-19T11:36:32.089Z,98.80
2023-05-19T11:39:08.526Z,98.90
2023-05-19T11:41:41.705Z,99.10
2023-05-19T11:44:14.231Z,99.60
2023-05-19T11:46:47.169Z,98.90
2023-05-19T11:49:19.957Z,99.10
2023-05-19T11:51:54.125Z,99.10
2023-05-19T11:54:36.694Z,99.10
2023-05-19T11:57:14.206Z,98.60
2023-05-19T11:59:49.776Z,98.10
2023-05-19T12:02:27.998Z,98.30
2023-05-19T12:05:00.698Z,98.40
2023-05-19T12:07:39.550Z,98.10
2023-05-19T12:10:14.840Z,98.30
2023-05-19T12:12:49.884Z,97.30
2023-05-19T12:15:23.302Z,97.50
2023-05-19T12:17:57.760Z,96.60
2023-05-19T12:20:32.750Z,96.60
2023-05-19T12:23:06.773Z,96.00
2023-05-19T12:25:39.522Z,95.80
2023-05-19T12:28:12.438Z,96.50
2023-05-19T12:30:49.685Z,95.80
2023-05-19T12:33:23.018Z,95.30
2023-05-19T12:35:55.892Z,95.60
2023-05-19T12:38:28.721Z,94.50
2023-05-19T12:41:01.258Z,94.80
2023-05-19T12:43:36.068Z,94.40
2023-05-19T12:46:13.000Z,94.50
2023-05-19T12:48:46.910Z,94.00
2023-05-19T12:51:20.331Z,93.50
2023-05-19T12:53:53.552Z,94.20
2023-05-19T12:56:29.639Z,94.40
2023-05-19T12:59:05.525Z,94.00
2023-05-19T13:01:38.191Z,93.90
2023-05-19T13:04:11.220Z,94.30
2023-05-19T13:06:43.906Z,94.20
2023-05-19T13:09:17.944Z,94.00
2023-05-19T13:11:54.151Z,95.00
2023-05-19T13:14:27.154Z,94.90
2023-05-19T13:16:59.817Z,94.40
2023-05-19T13:19:32.898Z,94.20
2023-05-19T13:22:05.536Z,94.00
2023-05-19T13:24:38.354Z,93.70
2023-05-19T13:27:10.923Z,93.80
2023-05-19T13:29:43.797Z,93.80
2023-05-19T13:32:16.506Z,93.20
2023-05-19T13:34:49.341Z,93.70
2023-05-19T13:37:21.862Z,93.20
2023-05-19T13:39:54.901Z,93.30
2023-05-19T13:42:27.483Z,93.30
2023-05-19T13:45:00.435Z,93.20
2023-05-19T13:47:33.260Z,93.00
2023-05-19T13:50:06.759Z,92.80
2023-05-19T13:52:39.388Z,93.20
2023-05-19T13:55:12.297Z,92.70
2023-05-19T13:57:44.990Z,92.50
2023-05-19T14:00:19.026Z,92.40
2023-05-19T14:02:51.957Z,92.00
2023-05-19T14:05:24.941Z,92.80
2023-05-19T14:07:58.208Z,92.60
2023-05-19T14:10:31.557Z,92.90
2023-05-19T14:13:29.762Z,93.00
2023-05-19T14:15:57.805Z,93.10
2023-05-19T14:18:31.073Z,93.20
2023-05-19T14:21:04.506Z,93.40
2023-05-19T14:23:37.249Z,93.70
2023-05-19T14:26:10.229Z,94.20
2023-05-19T14:28:43.501Z,94.20
2023-05-19T14:31:16.478Z,94.50
2023-05-19T14:33:49.316Z,94.40
2023-05-19T14:36:22.271Z,94.50
2023-05-19T14:38:54.944Z,94.30
2023-05-19T14:41:27.928Z,94.30
2023-05-19T14:44:00.623Z,94.50
2023-05-19T14:46:33.594Z,94.70
2023-05-19T14:49:06.684Z,94.90
2023-05-19T14:51:39.601Z,95.00
2023-05-19T14:54:12.317Z,94.80
2023-05-19T14:56:45.292Z,95.00
2023-05-19T14:59:17.979Z,94.90
2023-05-19T15:01:50.948Z,94.70
2023-05-19T15:04:23.654Z,94.90
2023-05-19T15:07:09.630Z,94.90
2023-05-19T15:09:43.279Z,95.30
2023-05-19T15:12:16.326Z,95.10
2023-05-19T15:14:48.996Z,95.20
2023-05-19T15:17:22.091Z,95.10
2023-05-19T15:19:54.742Z,95.10
2023-05-19T15:22:27.764Z,95.10
2023-05-19T15:25:01.078Z,95.30
2023-05-19T15:27:36.611Z,95.60
2023-05-19T15:30:09.606Z,95.60
2023-05-19T15:32:42.529Z,95.80
2023-05-19T15:35:15.266Z,96.00
2023-05-19T15:37:48.199Z,96.50
2023-05-19T15:40:20.901Z,96.70
2023-05-19T15:42:53.808Z,96.60
2023-05-19T15:45:26.568Z,96.80
2023-05-19T15:47:59.842Z,97.00
2023-05-19T15:50:33.134Z,97.00
2023-05-19T15:53:08.235Z,96.90
2023-05-19T15:55:41.067Z,96.90
2023-05-19T15:58:15.639Z,96.90
2023-05-19T16:00:48.326Z,96.90
2023-05-19T16:03:22.603Z,97.10
2023-05-19T16:05:55.526Z,96.90
2023-05-19T16:08:29.092Z,97.00
2023-05-19T16:11:01.843Z,96.90
2023-05-19T16:13:34.945Z,96.60
2023-05-19T16:16:11.857Z,96.90
2023-05-19T16:18:45.354Z,96.80
2023-05-19T16:21:18.030Z,97.10
2023-05-19T16:23:51.309Z,97.40
2023-05-19T16:26:23.905Z,97.70
2023-05-19T16:28:56.800Z,97.60
2023-05-19T16:31:29.354Z,97.80
2023-05-19T16:34:02.278Z,98.10
2023-05-19T16:36:34.971Z,98.40
2023-05-19T16:39:08.023Z,98.60
2023-05-19T16:41:40.547Z,99.00
2023-05-19T16:44:14.726Z,98.60
2023-05-19T16:46:47.578Z,98.80
2023-05-19T16:49:20.508Z,99.10
2023-05-19T16:51:54.232Z,99.40
2023-05-19T16:54:28.394Z,99.40
2023-05-19T16:57:01.571Z,99.50
2023-05-19T16:59:35.045Z,99.60
2023-05-19T17:02:08.634Z,99.80
2023-05-19T17:04:41.899Z,99.90
2023-05-19T17:07:17.713Z,99.90
2023-05-19T17:09:52.482Z,99.90
2023-05-19T17:12:26.164Z,99.90
2023-05-19T17:14:59.360Z,99.90
2023-05-19T17:17:32.071Z,99.90
2023-05-19T17:20:05.670Z,99.90
2023-05-19T17:22:38.249Z,99.90
2023-05-19T17:25:11.145Z,99.90
2023-05-19T17:27:43.735Z,99.90
2023-05-19T17:30:16.794Z,99.90
2023-05-19T17:32:49.632Z,99.90
2023-05-19T17:35:22.735Z,99.90
2023-05-19T17:37:55.649Z,99.90
2023-05-19T17:40:28.729Z,99.90
2023-05-19T17:43:01.631Z,99.90
2023-05-19T17:45:34.979Z,99.90
2023-05-19T17:48:07.846Z,99.90
2023-05-19T17:50:40.834Z,99.90
2023-05-19T17:53:14.151Z,99.90
2023-05-19T17:55:51.486Z,99.90
2023-05-19T17:58:24.528Z,99.90
2023-05-19T18:00:57.750Z,99.90
2023-05-19T18:03:31.388Z,99.90
2023-05-19T18:06:05.716Z,99.90
2023-05-19T18:08:39.815Z,99.90
2023-05-19T18:11:16.233Z,99.90
2023-05-19T18:13:48.945Z,99.90
2023-05-19T18:16:21.918Z,99.90
2023-05-19T18:18:54.685Z,99.90
2023-05-19T18:21:27.950Z,99.90
2023-05-19T18:24:03.186Z,99.90
2023-05-19T18:26:37.891Z,99.90
2023-05-19T18:29:11.405Z,99.90
2023-05-19T18:31:44.478Z,99.90
2023-05-19T18:34:17.067Z,99.90
2023-05-19T18:36:49.970Z,99.90
2023-05-19T18:39:22.639Z,99.90
2023-05-19T18:41:55.564Z,99.90
2023-05-19T18:44:29.489Z,99.90
2023-05-19T18:47:02.350Z,99.90
2023-05-19T18:49:34.903Z,99.90
2023-05-19T18:52:08.052Z,99.90
2023-05-19T18:54:42.405Z,99.90
2023-05-19T18:57:15.317Z,99.90
2023-05-19T18:59:47.958Z,99.90
2023-05-19T19:02:20.894Z,99.90
2023-05-19T19:04:53.624Z,99.90
2023-05-19T19:07:27.825Z,99.90
2023-05-19T19:10:00.388Z,99.90
2023-05-19T19:12:33.451Z,99.90
2023-05-19T19:15:09.195Z,99.90
2023-05-19T19:17:42.495Z,99.90
2023-05-19T19:20:15.134Z,99.90
2023-05-19T19:22:50.560Z,99.90
2023-05-19T19:25:23.655Z,99.90
2023-05-19T19:27:56.768Z,99.90
2023-05-19T19:30:29.678Z,99.90
2023-05-19T19:33:03.452Z,99.90
2023-05-19T19:35:37.424Z,99.90
2023-05-19T19:38:10.278Z,99.90
2023-05-19T19:40:42.853Z,99.90
2023-05-19T19:43:15.700Z,99.90
2023-05-19T19:45:48.242Z,99.90
2023-05-19T19:48:21.301Z,99.90
2023-05-19T19:50:55.040Z,99.90
2023-05-19T19:53:27.995Z,99.90
2023-05-19T19:56:02.678Z,99.90
2023-05-19T19:58:37.868Z,99.90
2023-05-19T20:01:11.628Z,99.90
2023-05-19T20:03:44.646Z,99.90
2023-05-19T20:06:17.343Z,99.90
2023-05-19T20:08:50.233Z,99.90
2023-05-19T20:11:24.371Z,99.90
2023-05-19T20:13:57.227Z,99.90
2023-05-19T20:16:29.885Z,99.90
2023-05-19T20:19:02.893Z,99.90
2023-05-19T20:21:35.733Z,99.90
2023-05-19T20:24:08.927Z,99.90
2023-05-19T20:26:41.459Z,99.90
2023-05-19T20:29:14.346Z,99.90
2023-05-19T20:31:47.007Z,99.90
2023-05-19T20:34:20.013Z,99.90
2023-05-19T20:36:52.731Z,99.90
2023-05-19T20:39:25.629Z,99.90
2023-05-19T20:41:58.218Z,99.90
2023-05-19T20:44:31.057Z,99.90
2023-05-19T20:47:04.333Z,99.90
2023-05-19T20:49:37.488Z,99.90
2023-05-19T20:52:10.098Z,99.90
2023-05-19T20:54:43.139Z,99.90
2023-05-19T20:57:15.842Z,99.90
2023-05-19T20:59:48.650Z,99.90
2023-05-19T21:02:21.184Z,99.90
2023-05-19T21:04:54.250Z,99.90
2023-05-19T21:07:26.865Z,99.90
2023-05-19T21:09:59.688Z,99.90
2023-05-19T21:12:34.253Z,99.90
2023-05-19T21:15:08.033Z,99.90
2023-05-19T21:17:40.806Z,99.90
2023-05-19T21:20:13.788Z,99.90
2023-05-19T21:22:46.300Z,99.90
2023-05-19T21:25:19.180Z,99.90
2023-05-19T21:27:52.032Z,99.90
2023-05-19T21:30:25.838Z,99.90
2023-05-19T21:32:58.644Z,99.90
2023-05-19T21:35:31.572Z,99.90
2023-05-19T21:38:15.764Z,99.90
2023-05-19T21:40:56.172Z,99.90
2023-05-19T21:43:28.744Z,99.90
2023-05-19T21:46:01.717Z,99.90
2023-05-19T21:48:34.464Z,99.90
2023-05-19T21:51:07.327Z,99.90
2023-05-19T21:53:39.912Z,99.90
2023-05-19T21:56:12.767Z,99.90
2023-05-19T21:58:45.444Z,99.90
2023-05-19T22:01:18.999Z,99.90
2023-05-19T22:03:51.568Z,99.90
2023-05-19T22:06:24.362Z,99.90
2023-05-19T22:08:58.162Z,99.90
2023-05-19T22:11:31.007Z,99.90
2023-05-19T22:14:03.513Z,99.90
2023-05-19T22:16:36.790Z,99.90
2023-05-19T22:19:10.542Z,99.90
2023-05-19T22:21:43.510Z,99.90
2023-05-19T22:24:18.533Z,99.90
2023-05-19T22:26:51.331Z,99.90
2023-05-19T22:29:23.853Z,99.90
2023-05-19T22:31:56.725Z,99.90
2023-05-19T22:34:29.336Z,99.90
2023-05-19T22:37:02.199Z,99.90
2023-05-19T22:39:34.709Z,99.90
2023-05-19T22:42:07.541Z,99.90
2023-05-19T22:44:40.079Z,99.90
2023-05-19T22:47:13.957Z,99.90
2023-05-19T22:49:46.668Z,99.90
2023-05-19T22:52:19.485Z,99.90
2023-05-19T22:54:52.108Z,99.90
2023-05-19T22:57:24.995Z,99.90
2023-05-19T22:59:57.557Z,99.90
2023-05-19T23:02:30.497Z,99.90
2023-05-19T23:05:03.176Z,99.90
2023-05-19T23:07:36.015Z,99.90
2023-05-19T23:10:08.945Z,99.90
2023-05-19T23:12:42.498Z,99.90
2023-05-19T23:15:14.992Z,99.90
2023-05-19T23:17:47.793Z,99.90
2023-05-19T23:20:20.328Z,99.90
2023-05-19T23:22:53.460Z,99.90
2023-05-19T23:25:25.962Z,99.90
2023-05-19T23:27:59.182Z,99.90
2023-05-19T23:30:33.047Z,99.90
2023-05-19T23:33:06.129Z,99.90
2023-05-19T23:35:39.638Z,99.90
2023-05-19T23:38:12.401Z,99.90
2023-05-19T23:40:44.926Z,99.90
2023-05-19T23:43:17.742Z,99.90
2023-05-19T23:45:50.482Z,99.90
2023-05-19T23:48:23.285Z,99.90
2023-05-19T23:50:55.898Z,99.90
2023-05-19T23:53:28.743Z,99.90
2023-05-19T23:56:01.338Z,99.90
2023-05-19T23:58:34.125Z,99.90
